createdAt,value
2022-09-05T00:01:55.932Z,8.70
2022-09-05T00:04:38.879Z,8.20
2022-09-05T00:07:38.816Z,9.43
2022-09-05T00:11:08.574Z,8.33
2022-09-05T00:14:03.315Z,8.30
2022-09-05T00:16:55.470Z,8.77
2022-09-05T00:24:20.672Z,8.40
2022-09-05T00:24:33.060Z,8.23
2022-09-05T00:26:18.232Z,8.60
2022-09-05T00:31:07.809Z,8.67
2022-09-05T00:32:58.574Z,8.13
2022-09-05T00:35:41.094Z,8.80
2022-09-05T00:38:27.522Z,8.50
2022-09-05T00:41:09.873Z,8.10
2022-09-05T00:43:50.073Z,8.80
2022-09-05T00:46:38.662Z,8.47
2022-09-05T00:49:30.817Z,9.20
2022-09-05T00:52:13.098Z,9.70
2022-09-05T00:55:07.641Z,8.13
2022-09-05T00:58:11.178Z,8.67
2022-09-05T01:00:45.448Z,8.63
2022-09-05T01:03:34.705Z,8.90
2022-09-05T01:06:33.061Z,9.23
2022-09-05T01:09:26.236Z,8.97
2022-09-05T01:12:05.472Z,9.87
2022-09-05T01:15:13.489Z,8.30
2022-09-05T01:18:08.089Z,9.40
2022-09-05T01:21:19.893Z,8.60
2022-09-05T01:24:17.358Z,12.07
2022-09-05T01:28:08.383Z,9.50
2022-09-05T01:31:15.327Z,9.80
2022-09-05T01:34:03.487Z,9.13
2022-09-05T01:37:32.751Z,9.43
2022-09-05T01:40:22.557Z,9.33
2022-09-05T01:43:04.145Z,9.77
2022-09-05T01:45:54.307Z,9.53
2022-09-05T01:48:24.112Z,9.67
2022-09-05T01:51:34.799Z,9.93
2022-09-05T01:54:26.257Z,9.37
2022-09-05T01:57:19.636Z,9.73
2022-09-05T02:00:12.509Z,10.37
2022-09-05T02:03:35.309Z,9.67
2022-09-05T02:06:33.877Z,10.20
2022-09-05T02:09:43.029Z,10.97
2022-09-05T02:12:15.725Z,10.07
2022-09-05T02:14:51.501Z,9.80
2022-09-05T02:17:50.823Z,10.00
2022-09-05T02:20:34.698Z,10.93
2022-09-05T02:23:37.545Z,10.03
2022-09-05T02:26:29.950Z,10.13
2022-09-05T02:29:07.184Z,10.27
2022-09-05T02:31:43.677Z,10.03
2022-09-05T02:34:38.194Z,10.63
2022-09-05T02:38:58.101Z,10.43
2022-09-05T02:45:13.250Z,10.37
2022-09-05T02:45:15.182Z,10.67
2022-09-05T02:47:42.326Z,10.53
2022-09-05T02:55:30.326Z,10.27
2022-09-05T02:57:40.444Z,9.33
2022-09-05T02:57:43.479Z,11.40
2022-09-05T03:00:05.793Z,9.97
2022-09-05T03:03:35.044Z,10.63
2022-09-05T03:06:43.470Z,9.83
2022-09-05T03:09:26.995Z,11.27
2022-09-05T03:12:39.865Z,9.57
2022-09-05T03:15:34.622Z,9.27
2022-09-05T03:18:20.273Z,10.47
2022-09-05T03:21:29.293Z,10.00
2022-09-05T03:24:17.538Z,11.27
2022-09-05T03:27:34.108Z,10.13
2022-09-05T03:30:08.869Z,11.03
2022-09-05T03:33:15.369Z,10.87
2022-09-05T03:36:22.688Z,10.27
2022-09-05T03:39:27.640Z,10.17
2022-09-05T03:42:42.686Z,10.80
2022-09-05T03:45:50.148Z,10.30
2022-09-05T03:48:44.255Z,10.67
2022-09-05T03:57:11.853Z,10.03
2022-09-05T03:57:17.818Z,10.37
2022-09-05T03:58:56.769Z,10.63
2022-09-05T04:02:29.082Z,10.53
2022-09-05T04:08:19.246Z,10.13
2022-09-05T04:08:24.609Z,10.37
2022-09-05T04:11:00.314Z,10.70
2022-09-05T04:13:39.159Z,10.03
2022-09-05T04:16:19.402Z,10.30
2022-09-05T04:18:56.283Z,10.07
2022-09-05T04:21:28.126Z,11.13
2022-09-05T04:24:09.740Z,12.00
2022-09-05T04:26:50.141Z,12.47
2022-09-05T04:29:39.007Z,10.93
2022-09-05T04:32:44.323Z,10.13
2022-09-05T04:35:32.182Z,15.70
2022-09-05T04:38:12.332Z,36.47
2022-09-05T04:41:11.966Z,34.57
2022-09-05T04:44:10.790Z,11.03
2022-09-05T04:46:53.739Z,12.13
2022-09-05T04:49:42.765Z,10.17
2022-09-05T04:52:51.930Z,12.03
2022-09-05T04:55:38.349Z,10.07
2022-09-05T04:58:49.404Z,11.03
2022-09-05T05:06:03.276Z,10.87
2022-09-05T05:06:20.305Z,11.07
2022-09-05T05:07:51.795Z,11.70
2022-09-05T05:14:36.682Z,10.43
2022-09-05T05:18:01.552Z,12.37
2022-09-05T05:18:14.372Z,11.17
2022-09-05T05:19:48.939Z,11.60
2022-09-05T05:22:46.910Z,13.47
2022-09-05T05:25:14.470Z,10.97
2022-09-05T05:27:59.846Z,11.87
2022-09-05T05:30:32.988Z,12.13
2022-09-05T05:33:19.174Z,11.97
2022-09-05T05:35:50.495Z,11.53
2022-09-05T05:38:43.055Z,13.10
2022-09-05T05:41:37.713Z,11.80
2022-09-05T05:44:19.328Z,11.60
2022-09-05T05:47:09.904Z,11.13
2022-09-05T05:49:46.588Z,12.17
2022-09-05T05:52:41.168Z,12.80
2022-09-05T05:55:52.688Z,13.23
2022-09-05T05:58:51.223Z,11.73
2022-09-05T06:01:42.567Z,11.63
2022-09-05T06:05:04.047Z,11.30
2022-09-05T06:10:39.043Z,11.53
2022-09-05T06:14:58.126Z,11.70
2022-09-05T06:15:08.911Z,15.00
2022-09-05T06:17:28.440Z,11.47
2022-09-05T06:22:06.238Z,11.23
2022-09-05T06:24:13.904Z,12.07
2022-09-05T06:27:21.053Z,11.77
2022-09-05T06:29:55.655Z,12.50
2022-09-05T06:32:53.899Z,12.13
2022-09-05T06:36:04.648Z,12.17
2022-09-05T06:38:57.622Z,11.17
2022-09-05T06:42:42.673Z,11.60
2022-09-05T06:45:36.509Z,11.63
2022-09-05T06:48:45.815Z,12.17
2022-09-05T06:51:49.832Z,11.23
2022-09-05T06:55:15.144Z,10.80
2022-09-05T06:58:17.520Z,10.20
2022-09-05T07:00:53.175Z,9.97
2022-09-05T07:03:28.703Z,10.97
2022-09-05T07:06:44.296Z,9.73
2022-09-05T07:09:57.386Z,9.93
2022-09-05T07:12:50.765Z,8.87
2022-09-05T07:16:06.011Z,9.67
2022-09-05T07:18:43.621Z,9.80
2022-09-05T07:21:26.232Z,9.67
2022-09-05T07:24:10.133Z,8.57
2022-09-05T07:26:53.602Z,9.30
2022-09-05T07:29:40.932Z,10.20
2022-09-05T07:32:31.870Z,11.13
2022-09-05T07:35:04.435Z,9.80
2022-09-05T07:37:41.747Z,9.77
2022-09-05T07:40:24.830Z,9.50
2022-09-05T07:43:19.221Z,9.70
2022-09-05T07:46:12.589Z,10.43
2022-09-05T07:48:53.454Z,11.20
2022-09-05T07:56:46.406Z,10.13
2022-09-05T07:57:05.035Z,9.80
2022-09-05T07:57:32.466Z,10.10
2022-09-05T08:00:29.680Z,11.00
2022-09-05T08:03:12.556Z,10.17
2022-09-05T08:05:50.388Z,10.97
2022-09-05T08:08:28.274Z,11.40
2022-09-05T08:11:22.663Z,9.93
2022-09-05T08:14:40.441Z,9.40
2022-09-05T08:16:53.662Z,10.17
2022-09-05T08:19:38.803Z,10.17
2022-09-05T08:22:11.496Z,10.07
2022-09-05T08:24:49.381Z,8.57
2022-09-05T08:27:20.926Z,9.13
2022-09-05T08:30:26.475Z,8.97
2022-09-05T08:33:11.894Z,10.00
2022-09-05T08:36:00.804Z,9.47
2022-09-05T08:38:37.409Z,9.00
2022-09-05T08:41:15.552Z,8.67
2022-09-05T08:46:36.064Z,8.87
2022-09-05T08:47:44.996Z,8.10
2022-09-05T08:50:55.055Z,8.20
2022-09-05T08:53:46.653Z,8.23
2022-09-05T08:56:21.333Z,8.47
2022-09-05T08:59:32.128Z,8.80
2022-09-05T09:02:46.460Z,8.60
2022-09-05T09:06:14.563Z,7.70
2022-09-05T09:09:10.703Z,7.93
2022-09-05T09:12:23.191Z,8.07
2022-09-05T09:15:00.847Z,8.00
2022-09-05T09:17:46.787Z,8.33
2022-09-05T09:20:52.939Z,7.73
2022-09-05T09:23:40.582Z,7.97
2022-09-05T09:26:28.234Z,8.40
2022-09-05T09:29:08.259Z,8.00
2022-09-05T09:32:14.309Z,8.77
2022-09-05T09:35:20.115Z,7.57
2022-09-05T09:38:51.765Z,7.30
2022-09-05T09:41:45.232Z,7.50
2022-09-05T09:45:01.508Z,7.30
2022-09-05T09:48:13.039Z,6.83
2022-09-05T09:51:14.202Z,7.00
2022-09-05T09:54:16.423Z,7.33
2022-09-05T09:57:07.935Z,6.60
2022-09-05T10:00:04.188Z,6.23
2022-09-05T10:05:56.018Z,6.40
2022-09-05T10:10:51.890Z,6.67
2022-09-05T10:10:54.447Z,6.70
2022-09-05T10:12:40.632Z,6.20
2022-09-05T10:15:31.526Z,6.73
2022-09-05T10:18:29.173Z,6.80
2022-09-05T10:21:16.138Z,6.07
2022-09-05T10:24:21.883Z,6.20
2022-09-05T10:27:00.976Z,5.47
2022-09-05T10:29:58.805Z,5.67
2022-09-05T10:35:09.843Z,5.50
2022-09-05T10:35:43.529Z,6.45
2022-09-05T10:38:16.240Z,5.60
2022-09-05T10:41:20.447Z,5.38
2022-09-05T10:43:53.795Z,5.53
2022-09-05T10:47:08.298Z,5.35
2022-09-05T10:49:48.101Z,5.05
2022-09-05T10:52:31.959Z,5.03
2022-09-05T10:55:17.370Z,4.95
2022-09-05T10:57:54.619Z,5.28
2022-09-05T11:02:24.440Z,4.50
2022-09-05T11:03:47.743Z,5.10
2022-09-05T11:06:20.914Z,4.80
2022-09-05T11:09:26.549Z,4.72
2022-09-05T11:12:27.293Z,4.07
2022-09-05T11:15:02.608Z,4.20
2022-09-05T11:17:46.736Z,5.60
2022-09-05T11:20:38.721Z,5.03
2022-09-05T11:23:38.811Z,4.35
2022-09-05T11:26:18.521Z,4.40
2022-09-05T11:29:00.808Z,4.28
2022-09-05T11:34:28.454Z,4.13
2022-09-05T11:39:59.039Z,3.97
2022-09-05T11:40:04.609Z,5.20
2022-09-05T11:41:09.794Z,4.50
2022-09-05T11:44:24.571Z,4.50
2022-09-05T11:47:43.641Z,4.57
2022-09-05T11:50:48.934Z,4.60
2022-09-05T11:53:25.261Z,4.80
2022-09-05T11:56:09.162Z,4.37
2022-09-05T11:59:05.330Z,4.70
2022-09-05T12:01:57.000Z,4.80
2022-09-05T12:07:57.429Z,4.80
2022-09-05T12:10:47.116Z,5.20
2022-09-05T12:13:35.210Z,4.70
2022-09-05T12:16:27.960Z,4.50
2022-09-05T12:19:19.679Z,4.87
2022-09-05T12:22:09.044Z,5.23
2022-09-05T12:25:25.733Z,5.97
2022-09-05T12:27:52.510Z,4.70
2022-09-05T12:30:53.095Z,4.60
2022-09-05T12:36:01.834Z,4.77
2022-09-05T12:40:15.696Z,5.00
2022-09-05T12:41:39.146Z,4.80
2022-09-05T12:41:40.880Z,4.87
2022-09-05T12:43:49.688Z,4.77
2022-09-05T12:45:47.607Z,4.50
2022-09-05T12:48:39.849Z,5.07
2022-09-05T12:51:45.303Z,5.10
2022-09-05T12:54:24.474Z,5.13
2022-09-05T13:01:25.765Z,5.27
2022-09-05T13:03:13.927Z,5.50
2022-09-05T13:03:29.870Z,4.83
2022-09-05T13:06:19.405Z,5.27
2022-09-05T13:09:21.542Z,5.30
2022-09-05T13:14:56.207Z,5.40
2022-09-05T13:15:20.120Z,5.10
2022-09-05T13:18:11.588Z,5.13
2022-09-05T13:20:51.492Z,5.53
2022-09-05T13:23:53.252Z,6.30
2022-09-05T13:26:36.225Z,6.20
2022-09-05T13:29:17.878Z,6.10
2022-09-05T13:38:03.552Z,6.27
2022-09-05T13:38:15.039Z,6.57
2022-09-05T13:38:16.166Z,6.57
2022-09-05T13:40:58.216Z,5.70
2022-09-05T13:43:32.201Z,6.00
2022-09-05T13:46:11.102Z,6.33
2022-09-05T13:52:38.013Z,6.03
2022-09-05T13:55:14.016Z,6.43
2022-09-05T13:58:07.375Z,6.07
2022-09-05T14:00:40.267Z,5.70
2022-09-05T14:03:31.795Z,5.63
2022-09-05T14:07:43.973Z,6.23
2022-09-05T14:10:28.587Z,5.73
2022-09-05T14:13:19.738Z,5.90
2022-09-05T14:15:59.959Z,6.27
2022-09-05T14:18:54.549Z,6.37
2022-09-05T14:21:26.888Z,5.87
2022-09-05T14:23:58.748Z,5.50
2022-09-05T14:26:51.234Z,6.07
2022-09-05T14:29:29.039Z,5.77
2022-09-05T14:37:37.071Z,5.50
2022-09-05T14:37:53.461Z,5.23
2022-09-05T14:39:25.524Z,5.37
2022-09-05T14:42:07.380Z,5.50
2022-09-05T14:45:23.000Z,5.33
2022-09-05T14:48:13.271Z,6.13
2022-09-05T14:50:49.414Z,5.20
2022-09-05T14:57:48.519Z,5.60
2022-09-05T15:02:44.276Z,5.20
2022-09-05T15:02:53.942Z,5.10
2022-09-05T15:05:41.013Z,5.30
2022-09-05T15:08:42.561Z,5.40
2022-09-05T15:12:24.408Z,5.17
2022-09-05T15:14:08.898Z,5.50
2022-09-05T15:16:45.759Z,5.03
2022-09-05T15:20:07.306Z,5.20
2022-09-05T15:22:47.903Z,5.70
2022-09-05T15:25:25.141Z,5.33
2022-09-05T15:27:53.613Z,5.50
2022-09-05T15:30:35.802Z,4.90
2022-09-05T15:33:28.981Z,4.67
2022-09-05T15:35:58.643Z,5.20
2022-09-05T15:38:37.908Z,5.57
2022-09-05T15:41:31.739Z,4.93
2022-09-05T15:44:09.554Z,5.50
2022-09-05T15:46:51.404Z,5.23
2022-09-05T15:49:37.312Z,5.53
2022-09-05T15:52:17.834Z,6.07
2022-09-05T15:55:10.772Z,5.80
2022-09-05T15:57:46.711Z,5.83
2022-09-05T16:00:51.254Z,6.30
2022-09-05T16:05:17.891Z,6.20
2022-09-05T16:10:33.647Z,6.13
2022-09-05T16:10:34.103Z,6.90
2022-09-05T16:12:27.743Z,7.10
2022-09-05T16:15:30.045Z,6.50
2022-09-05T16:23:13.075Z,6.57
2022-09-05T16:23:28.978Z,7.60
2022-09-05T16:24:18.561Z,7.47
2022-09-05T16:27:06.241Z,6.60
2022-09-05T16:29:42.172Z,6.33
2022-09-05T16:32:26.087Z,6.97
2022-09-05T16:35:18.232Z,6.77
2022-09-05T16:38:12.944Z,6.70
2022-09-05T16:40:53.961Z,6.50
2022-09-05T16:43:34.448Z,6.83
2022-09-05T16:46:34.029Z,6.47
2022-09-05T16:49:38.959Z,7.07
2022-09-05T16:52:17.782Z,7.17
2022-09-05T16:54:53.923Z,7.67
2022-09-05T16:57:30.304Z,7.50
2022-09-05T16:59:57.915Z,6.93
2022-09-05T17:02:44.247Z,7.60
2022-09-05T17:05:32.407Z,7.20
2022-09-05T17:08:29.110Z,7.20
2022-09-05T17:11:13.846Z,7.70
2022-09-05T17:14:10.763Z,7.70
2022-09-05T17:17:23.485Z,8.03
2022-09-05T17:20:06.750Z,7.10
2022-09-05T17:26:26.395Z,8.27
2022-09-05T17:29:33.946Z,8.27
2022-09-05T17:29:50.487Z,8.40
2022-09-05T17:32:04.458Z,8.37
2022-09-05T17:35:17.109Z,26.30
2022-09-05T17:38:28.084Z,14.47
2022-09-05T17:41:11.960Z,8.63
2022-09-05T17:43:41.016Z,7.37
2022-09-05T17:46:25.599Z,7.97
2022-09-05T17:49:17.949Z,9.03
2022-09-05T17:51:50.925Z,8.17
2022-09-05T17:54:50.075Z,8.77
2022-09-05T17:57:29.555Z,8.97
2022-09-05T18:00:07.026Z,8.50
2022-09-05T18:02:57.018Z,8.30
2022-09-05T18:06:09.791Z,8.73
2022-09-05T18:08:45.703Z,8.13
2022-09-05T18:11:27.423Z,8.20
2022-09-05T18:14:24.486Z,8.90
2022-09-05T18:17:36.482Z,8.77
2022-09-05T18:19:45.959Z,9.20
2022-09-05T18:22:39.500Z,9.37
2022-09-05T18:25:28.177Z,9.07
2022-09-05T18:28:12.818Z,9.00
2022-09-05T18:30:40.127Z,9.40
2022-09-05T18:33:33.298Z,9.13
2022-09-05T18:35:59.549Z,8.83
2022-09-05T18:38:51.574Z,9.20
2022-09-05T18:41:22.119Z,8.80
2022-09-05T18:44:12.196Z,9.17
2022-09-05T18:46:53.292Z,9.67
2022-09-05T18:50:25.361Z,8.97
2022-09-05T18:52:34.089Z,10.07
2022-09-05T18:56:10.914Z,9.47
2022-09-05T18:58:10.871Z,8.80
2022-09-05T19:00:46.654Z,9.20
2022-09-05T19:03:28.815Z,8.50
2022-09-05T19:06:34.644Z,9.73
2022-09-05T19:09:09.808Z,9.70
2022-09-05T19:12:33.276Z,8.87
2022-09-05T19:15:08.312Z,8.07
2022-09-05T19:17:47.530Z,8.73
2022-09-05T19:20:56.407Z,9.80
2022-09-05T19:23:32.183Z,8.63
2022-09-05T19:26:09.659Z,9.27
2022-09-05T19:36:52.816Z,8.37
2022-09-05T19:36:53.005Z,9.03
2022-09-05T19:37:23.845Z,8.97
2022-09-05T19:37:41.248Z,8.13
2022-09-05T19:47:01.844Z,7.93
2022-09-05T19:47:35.921Z,8.13
2022-09-05T19:47:51.473Z,9.13
2022-09-05T19:49:12.929Z,8.93
2022-09-05T19:51:41.519Z,9.47
2022-09-05T19:54:25.952Z,8.43
2022-09-05T19:57:03.218Z,9.00
2022-09-05T19:59:34.342Z,8.43
2022-09-05T20:02:04.671Z,9.03
2022-09-05T20:04:38.769Z,8.93
2022-09-05T20:07:19.187Z,35.83
2022-09-05T20:09:49.644Z,24.83
2022-09-05T20:12:29.757Z,10.20
2022-09-05T20:14:57.929Z,9.07
2022-09-05T20:17:32.172Z,9.23
2022-09-05T20:20:08.652Z,8.87
2022-09-05T20:22:49.782Z,9.00
2022-09-05T20:25:40.691Z,9.00
2022-09-05T20:28:11.519Z,8.50
2022-09-05T20:30:45.705Z,8.53
2022-09-05T20:33:28.535Z,9.53
2022-09-05T20:43:08.992Z,9.27
2022-09-05T20:43:23.647Z,9.07
2022-09-05T20:43:36.452Z,8.73
2022-09-05T20:44:50.647Z,8.97
2022-09-05T20:50:58.281Z,9.40
2022-09-05T20:54:23.018Z,10.57
2022-09-05T20:54:25.929Z,8.53
2022-09-05T20:56:30.843Z,9.13
2022-09-05T20:58:59.199Z,10.10
2022-09-05T21:01:27.865Z,9.10
2022-09-05T21:04:05.533Z,9.53
2022-09-05T21:06:41.311Z,10.30
2022-09-05T21:09:13.131Z,9.50
2022-09-05T21:11:41.217Z,10.37
2022-09-05T21:14:08.866Z,8.80
2022-09-05T21:16:49.220Z,9.97
2022-09-05T21:19:32.490Z,11.20
2022-09-05T21:22:09.689Z,10.47
2022-09-05T21:24:36.835Z,9.43
2022-09-05T21:27:25.127Z,9.70
2022-09-05T21:29:58.657Z,10.60
2022-09-05T21:32:38.019Z,9.87
2022-09-05T21:35:34.414Z,9.60
2022-09-05T21:37:58.657Z,10.00
2022-09-05T21:40:25.789Z,10.70
2022-09-05T21:47:35.833Z,10.57
2022-09-05T21:47:48.364Z,10.10
2022-09-05T21:48:28.981Z,11.73
2022-09-05T21:51:02.566Z,11.17
2022-09-05T21:56:45.293Z,11.40
2022-09-05T21:59:26.037Z,11.17
2022-09-05T21:59:46.083Z,10.40
2022-09-05T22:02:16.538Z,10.87
2022-09-05T22:04:44.220Z,10.67
2022-09-05T22:07:21.625Z,9.53
2022-09-05T22:10:03.382Z,11.80
2022-09-05T22:12:35.837Z,12.10
2022-09-05T22:15:28.816Z,10.70
2022-09-05T22:18:17.299Z,12.07
2022-09-05T22:21:01.382Z,11.07
2022-09-05T22:23:44.297Z,11.30
2022-09-05T22:26:13.354Z,11.23
2022-09-05T22:28:48.774Z,11.03
2022-09-05T22:31:19.912Z,11.40
2022-09-05T22:33:50.955Z,11.40
2022-09-05T22:36:18.550Z,12.03
2022-09-05T22:38:47.573Z,11.70
2022-09-05T22:41:14.961Z,11.50
2022-09-05T22:43:42.112Z,11.83
2022-09-05T22:46:11.140Z,11.77
2022-09-05T22:48:38.460Z,10.90
2022-09-05T22:51:06.377Z,11.13
2022-09-05T22:53:33.578Z,11.33
2022-09-05T22:56:06.457Z,12.03
2022-09-05T22:58:44.881Z,11.77
2022-09-05T23:01:12.695Z,12.27
2022-09-05T23:03:39.731Z,11.97
2022-09-05T23:06:10.163Z,11.90
2022-09-05T23:08:37.309Z,13.03
2022-09-05T23:11:16.819Z,12.00
2022-09-05T23:13:44.800Z,11.73
2022-09-05T23:16:12.552Z,12.17
2022-09-05T23:18:40.082Z,14.00
2022-09-05T23:21:11.209Z,11.50
2022-09-05T23:23:41.242Z,11.37
2022-09-05T23:26:13.139Z,11.73
2022-09-05T23:28:43.361Z,10.57
2022-09-05T23:31:12.290Z,12.13
2022-09-05T23:33:41.920Z,11.80
2022-09-05T23:36:13.806Z,12.30
2022-09-05T23:38:44.598Z,10.80
2022-09-05T23:41:14.985Z,11.77
2022-09-05T23:43:43.087Z,11.80
2022-09-05T23:46:10.203Z,11.23
2022-09-05T23:48:39.840Z,10.10
2022-09-05T23:51:10.380Z,11.07
2022-09-05T23:53:38.273Z,11.80
2022-09-05T23:56:09.548Z,10.83
2022-09-05T23:58:37.714Z,11.73
